sensor_id;sensor_type;location;lat;lon;timestamp;temperature;humidity
51011;DHT22;37038;50.182;8.624;2022-10-16T00:02:31;15.00;99.90
51011;DHT22;37038;50.182;8.624;2022-10-16T00:05:47;15.00;99.90
51011;DHT22;37038;50.182;8.624;2022-10-16T00:09:28;14.90;99.90
51011;DHT22;37038;50.182;8.624;2022-10-16T00:12:23;14.90;99.90
51011;DHT22;37038;50.182;8.624;2022-10-16T00:15:24;14.90;99.90
51011;DHT22;37038;50.182;8.624;2022-10-16T00:18:47;15.00;99.90
51011;DHT22;37038;50.182;8.624;2022-10-16T00:22:46;14.90;99.90
51011;DHT22;37038;50.182;8.624;2022-10-16T00:26:27;15.10;99.90
51011;DHT22;37038;50.182;8.624;2022-10-16T00:29:31;15.10;99.90
51011;DHT22;37038;50.182;8.624;2022-10-16T00:32:22;15.20;99.90
51011;DHT22;37038;50.182;8.624;2022-10-16T00:35:41;15.40;99.90
51011;DHT22;37038;50.182;8.624;2022-10-16T00:38:41;15.60;99.90
51011;DHT22;37038;50.182;8.624;2022-10-16T00:42:01;15.20;99.90
51011;DHT22;37038;50.182;8.624;2022-10-16T00:45:20;15.00;99.90
51011;DHT22;37038;50.182;8.624;2022-10-16T00:48:21;15.00;99.90
51011;DHT22;37038;50.182;8.624;2022-10-16T00:51:20;15.00;99.90
51011;DHT22;37038;50.182;8.624;2022-10-16T00:54:30;15.30;99.90
51011;DHT22;37038;50.182;8.624;2022-10-16T00:57:40;15.40;99.90
51011;DHT22;37038;50.182;8.624;2022-10-16T01:00:50;15.60;99.90
51011;DHT22;37038;50.182;8.624;2022-10-16T01:03:48;15.60;99.90
51011;DHT22;37038;50.182;8.624;2022-10-16T01:10:44;15.60;99.90
51011;DHT22;37038;50.182;8.624;2022-10-16T01:13:48;15.50;99.90
51011;DHT22;37038;50.182;8.624;2022-10-16T01:17:02;15.60;99.90
51011;DHT22;37038;50.182;8.624;2022-10-16T01:27:33;15.50;99.90
51011;DHT22;37038;50.182;8.624;2022-10-16T01:31:25;15.40;99.90
51011;DHT22;37038;50.182;8.624;2022-10-16T01:34:52;15.30;99.90
51011;DHT22;37038;50.182;8.624;2022-10-16T01:38:39;15.30;99.90
51011;DHT22;37038;50.182;8.624;2022-10-16T01:41:58;15.20;99.90
51011;DHT22;37038;50.182;8.624;2022-10-16T01:45:17;15.10;99.90
51011;DHT22;37038;50.182;8.624;2022-10-16T01:48:29;15.20;99.90
51011;DHT22;37038;50.182;8.624;2022-10-16T01:51:48;15.30;99.90
51011;DHT22;37038;50.182;8.624;2022-10-16T01:55:01;15.50;99.90
51011;DHT22;37038;50.182;8.624;2022-10-16T01:58:14;15.40;99.90
51011;DHT22;37038;50.182;8.624;2022-10-16T02:01:36;15.40;99.90
51011;DHT22;37038;50.182;8.624;2022-10-16T02:05:04;15.30;99.90
51011;DHT22;37038;50.182;8.624;2022-10-16T02:08:48;15.30;99.90
51011;DHT22;37038;50.182;8.624;2022-10-16T02:11:56;15.30;99.90
51011;DHT22;37038;50.182;8.624;2022-10-16T02:15:39;15.40;99.90
51011;DHT22;37038;50.182;8.624;2022-10-16T02:19:11;15.30;99.90
51011;DHT22;37038;50.182;8.624;2022-10-16T02:22:39;15.40;99.90
51011;DHT22;37038;50.182;8.624;2022-10-16T02:25:40;15.40;99.90
51011;DHT22;37038;50.182;8.624;2022-10-16T02:33:10;15.40;99.90
51011;DHT22;37038;50.182;8.624;2022-10-16T02:36:53;15.30;99.90
51011;DHT22;37038;50.182;8.624;2022-10-16T02:39:56;15.40;99.90
51011;DHT22;37038;50.182;8.624;2022-10-16T02:47:17;15.40;99.90
51011;DHT22;37038;50.182;8.624;2022-10-16T02:50:26;15.40;99.90
51011;DHT22;37038;50.182;8.624;2022-10-16T02:53:36;15.50;99.90
51011;DHT22;37038;50.182;8.624;2022-10-16T02:56:39;15.40;99.90
51011;DHT22;37038;50.182;8.624;2022-10-16T02:59:34;15.40;99.90
51011;DHT22;37038;50.182;8.624;2022-10-16T03:02:47;15.30;99.90
51011;DHT22;37038;50.182;8.624;2022-10-16T03:05:38;15.40;99.90
51011;DHT22;37038;50.182;8.624;2022-10-16T03:08:49;15.30;99.90
51011;DHT22;37038;50.182;8.624;2022-10-16T03:11:45;15.30;99.90
51011;DHT22;37038;50.182;8.624;2022-10-16T03:14:38;15.30;99.90
51011;DHT22;37038;50.182;8.624;2022-10-16T03:17:35;15.30;99.90
51011;DHT22;37038;50.182;8.624;2022-10-16T03:20:26;15.30;99.90
51011;DHT22;37038;50.182;8.624;2022-10-16T03:23:18;15.30;99.90
51011;DHT22;37038;50.182;8.624;2022-10-16T03:26:08;15.20;99.90
51011;DHT22;37038;50.182;8.624;2022-10-16T03:29:03;15.10;99.90
51011;DHT22;37038;50.182;8.624;2022-10-16T03:32:00;15.10;99.90
51011;DHT22;37038;50.182;8.624;2022-10-16T03:34:57;15.10;99.90
51011;DHT22;37038;50.182;8.624;2022-10-16T03:37:54;15.10;99.90
51011;DHT22;37038;50.182;8.624;2022-10-16T03:40:58;15.10;99.90
51011;DHT22;37038;50.182;8.624;2022-10-16T03:43:52;15.00;99.90
51011;DHT22;37038;50.182;8.624;2022-10-16T03:46:41;14.90;99.90
51011;DHT22;37038;50.182;8.624;2022-10-16T03:49:30;14.90;99.90
51011;DHT22;37038;50.182;8.624;2022-10-16T03:52:27;15.00;99.90
51011;DHT22;37038;50.182;8.624;2022-10-16T03:55:19;15.00;99.90
51011;DHT22;37038;50.182;8.624;2022-10-16T03:58:22;15.00;99.90
51011;DHT22;37038;50.182;8.624;2022-10-16T04:01:23;14.90;99.90
51011;DHT22;37038;50.182;8.624;2022-10-16T04:04:16;14.90;99.90
51011;DHT22;37038;50.182;8.624;2022-10-16T04:07:13;14.90;99.90
51011;DHT22;37038;50.182;8.624;2022-10-16T04:10:12;14.90;99.90
51011;DHT22;37038;50.182;8.624;2022-10-16T04:13:12;14.90;99.90
51011;DHT22;37038;50.182;8.624;2022-10-16T04:16:19;14.80;99.90
51011;DHT22;37038;50.182;8.624;2022-10-16T04:19:14;14.90;99.90
51011;DHT22;37038;50.182;8.624;2022-10-16T04:22:05;14.90;99.90
51011;DHT22;37038;50.182;8.624;2022-10-16T04:25:02;14.90;99.90
51011;DHT22;37038;50.182;8.624;2022-10-16T04:28:28;14.90;99.90
51011;DHT22;37038;50.182;8.624;2022-10-16T04:31:40;14.90;99.90
51011;DHT22;37038;50.182;8.624;2022-10-16T04:34:54;14.90;99.90
51011;DHT22;37038;50.182;8.624;2022-10-16T04:38:00;14.90;99.90
51011;DHT22;37038;50.182;8.624;2022-10-16T04:44:34;15.00;99.90
51011;DHT22;37038;50.182;8.624;2022-10-16T04:47:42;15.00;99.90
51011;DHT22;37038;50.182;8.624;2022-10-16T04:50:43;14.90;99.90
51011;DHT22;37038;50.182;8.624;2022-10-16T04:53:56;15.00;99.90
51011;DHT22;37038;50.182;8.624;2022-10-16T04:57:43;15.10;99.90
51011;DHT22;37038;50.182;8.624;2022-10-16T05:00:36;14.90;99.90
51011;DHT22;37038;50.182;8.624;2022-10-16T05:03:51;14.80;99.90
51011;DHT22;37038;50.182;8.624;2022-10-16T05:07:02;14.90;99.90
51011;DHT22;37038;50.182;8.624;2022-10-16T05:10:04;15.00;99.90
51011;DHT22;37038;50.182;8.624;2022-10-16T05:13:06;15.00;99.90
51011;DHT22;37038;50.182;8.624;2022-10-16T05:16:10;15.10;99.90
51011;DHT22;37038;50.182;8.624;2022-10-16T05:19:13;15.20;99.90
51011;DHT22;37038;50.182;8.624;2022-10-16T05:22:15;15.20;99.90
51011;DHT22;37038;50.182;8.624;2022-10-16T05:25:14;15.00;99.90
51011;DHT22;37038;50.182;8.624;2022-10-16T05:28:09;14.90;99.90
51011;DHT22;37038;50.182;8.624;2022-10-16T05:30:58;15.00;99.90
51011;DHT22;37038;50.182;8.624;2022-10-16T05:38:29;15.40;99.90
51011;DHT22;37038;50.182;8.624;2022-10-16T05:41:17;16.00;99.90
51011;DHT22;37038;50.182;8.624;2022-10-16T05:44:09;16.10;99.90
51011;DHT22;37038;50.182;8.624;2022-10-16T05:47:00;16.00;99.90
51011;DHT22;37038;50.182;8.624;2022-10-16T05:49:49;16.00;99.90
51011;DHT22;37038;50.182;8.624;2022-10-16T05:52:37;15.90;99.90
51011;DHT22;37038;50.182;8.624;2022-10-16T05:55:25;15.70;99.90
51011;DHT22;37038;50.182;8.624;2022-10-16T05:58:19;15.80;99.90
51011;DHT22;37038;50.182;8.624;2022-10-16T06:01:16;15.80;99.90
51011;DHT22;37038;50.182;8.624;2022-10-16T06:04:12;15.70;99.90
51011;DHT22;37038;50.182;8.624;2022-10-16T06:07:02;15.40;99.90
51011;DHT22;37038;50.182;8.624;2022-10-16T06:09:51;15.30;99.90
51011;DHT22;37038;50.182;8.624;2022-10-16T06:12:40;15.30;99.90
51011;DHT22;37038;50.182;8.624;2022-10-16T06:15:28;15.20;99.90
51011;DHT22;37038;50.182;8.624;2022-10-16T06:18:16;15.20;99.90
51011;DHT22;37038;50.182;8.624;2022-10-16T06:21:10;15.30;99.90
51011;DHT22;37038;50.182;8.624;2022-10-16T06:24:00;15.30;99.90
51011;DHT22;37038;50.182;8.624;2022-10-16T06:26:49;15.50;99.90
51011;DHT22;37038;50.182;8.624;2022-10-16T06:29:40;15.40;99.90
51011;DHT22;37038;50.182;8.624;2022-10-16T06:32:28;15.30;99.90
51011;DHT22;37038;50.182;8.624;2022-10-16T06:35:19;15.30;99.90
51011;DHT22;37038;50.182;8.624;2022-10-16T06:38:10;15.30;99.90
51011;DHT22;37038;50.182;8.624;2022-10-16T06:41:00;15.30;99.90
51011;DHT22;37038;50.182;8.624;2022-10-16T06:43:51;15.30;99.90
51011;DHT22;37038;50.182;8.624;2022-10-16T06:46:42;15.40;99.90
51011;DHT22;37038;50.182;8.624;2022-10-16T06:49:30;15.70;99.90
51011;DHT22;37038;50.182;8.624;2022-10-16T06:52:18;16.10;99.90
51011;DHT22;37038;50.182;8.624;2022-10-16T06:55:12;16.10;99.90
51011;DHT22;37038;50.182;8.624;2022-10-16T06:58:14;15.50;99.90
51011;DHT22;37038;50.182;8.624;2022-10-16T07:01:06;15.30;99.90
51011;DHT22;37038;50.182;8.624;2022-10-16T07:04:04;15.40;99.90
51011;DHT22;37038;50.182;8.624;2022-10-16T07:07:00;15.30;99.90
51011;DHT22;37038;50.182;8.624;2022-10-16T07:10:02;15.50;99.90
51011;DHT22;37038;50.182;8.624;2022-10-16T07:13:14;15.40;99.90
51011;DHT22;37038;50.182;8.624;2022-10-16T07:16:16;15.60;99.90
51011;DHT22;37038;50.182;8.624;2022-10-16T07:19:40;15.80;99.90
51011;DHT22;37038;50.182;8.624;2022-10-16T07:22:41;16.00;99.90
51011;DHT22;37038;50.182;8.624;2022-10-16T07:28:55;16.00;99.90
51011;DHT22;37038;50.182;8.624;2022-10-16T07:31:48;15.90;99.90
51011;DHT22;37038;50.182;8.624;2022-10-16T07:34:44;16.00;99.90
51011;DHT22;37038;50.182;8.624;2022-10-16T07:37:44;15.90;99.90
51011;DHT22;37038;50.182;8.624;2022-10-16T07:40:36;16.00;99.90
51011;DHT22;37038;50.182;8.624;2022-10-16T07:43:26;16.00;99.90
51011;DHT22;37038;50.182;8.624;2022-10-16T07:46:40;15.90;99.90
51011;DHT22;37038;50.182;8.624;2022-10-16T07:49:29;16.00;99.90
51011;DHT22;37038;50.182;8.624;2022-10-16T07:52:26;16.30;99.90
51011;DHT22;37038;50.182;8.624;2022-10-16T07:55:36;16.20;99.90
51011;DHT22;37038;50.182;8.624;2022-10-16T08:53:35;16.10;99.90
51011;DHT22;37038;50.182;8.624;2022-10-16T08:56:27;16.20;99.90
51011;DHT22;37038;50.182;8.624;2022-10-16T08:59:21;16.20;99.90
51011;DHT22;37038;50.182;8.624;2022-10-16T09:02:38;16.20;99.90
51011;DHT22;37038;50.182;8.624;2022-10-16T09:06:05;16.30;99.90
51011;DHT22;37038;50.182;8.624;2022-10-16T09:09:28;16.30;99.90
51011;DHT22;37038;50.182;8.624;2022-10-16T09:12:51;16.20;99.90
51011;DHT22;37038;50.182;8.624;2022-10-16T09:21:44;16.10;99.90
51011;DHT22;37038;50.182;8.624;2022-10-16T09:24:37;16.20;99.90
51011;DHT22;37038;50.182;8.624;2022-10-16T09:27:28;16.00;99.90
51011;DHT22;37038;50.182;8.624;2022-10-16T09:30:33;15.90;99.90
51011;DHT22;37038;50.182;8.624;2022-10-16T09:34:13;15.90;99.90
51011;DHT22;37038;50.182;8.624;2022-10-16T09:38:05;16.00;99.90
51011;DHT22;37038;50.182;8.624;2022-10-16T09:53:12;16.10;99.90
51011;DHT22;37038;50.182;8.624;2022-10-16T09:56:20;16.10;99.90
51011;DHT22;37038;50.182;8.624;2022-10-16T10:00:15;16.30;99.90
51011;DHT22;37038;50.182;8.624;2022-10-16T10:03:42;16.30;99.90
51011;DHT22;37038;50.182;8.624;2022-10-16T10:07:30;16.00;99.90
51011;DHT22;37038;50.182;8.624;2022-10-16T10:13:59;16.00;99.90
51011;DHT22;37038;50.182;8.624;2022-10-16T10:17:20;16.40;99.90
51011;DHT22;37038;50.182;8.624;2022-10-16T10:24:40;18.50;99.90
51011;DHT22;37038;50.182;8.624;2022-10-16T10:31:20;19.20;99.90
51011;DHT22;37038;50.182;8.624;2022-10-16T11:26:34;17.90;99.90
51011;DHT22;37038;50.182;8.624;2022-10-16T11:29:34;18.20;99.90
51011;DHT22;37038;50.182;8.624;2022-10-16T11:45:53;19.30;99.90
51011;DHT22;37038;50.182;8.624;2022-10-16T11:49:31;20.20;99.90
51011;DHT22;37038;50.182;8.624;2022-10-16T11:56:21;18.10;99.90
51011;DHT22;37038;50.182;8.624;2022-10-16T12:06:53;18.50;99.90
51011;DHT22;37038;50.182;8.624;2022-10-16T12:10:31;18.70;99.90
51011;DHT22;37038;50.182;8.624;2022-10-16T12:16:26;18.10;99.90
51011;DHT22;37038;50.182;8.624;2022-10-16T12:19:31;18.50;99.90
51011;DHT22;37038;50.182;8.624;2022-10-16T12:23:17;18.10;99.90
51011;DHT22;37038;50.182;8.624;2022-10-16T12:36:07;19.50;99.90
51011;DHT22;37038;50.182;8.624;2022-10-16T12:39:50;21.00;99.90
51011;DHT22;37038;50.182;8.624;2022-10-16T12:44:20;22.70;99.90
51011;DHT22;37038;50.182;8.624;2022-10-16T13:31:09;20.80;99.90
51011;DHT22;37038;50.182;8.624;2022-10-16T13:35:27;20.90;99.90
51011;DHT22;37038;50.182;8.624;2022-10-16T13:51:04;20.50;99.90
51011;DHT22;37038;50.182;8.624;2022-10-16T15:43:33;21.20;99.90
51011;DHT22;37038;50.182;8.624;2022-10-16T15:46:24;21.30;99.90
51011;DHT22;37038;50.182;8.624;2022-10-16T15:49:27;21.20;99.90
51011;DHT22;37038;50.182;8.624;2022-10-16T15:55:21;21.30;99.90
51011;DHT22;37038;50.182;8.624;2022-10-16T15:58:21;21.40;99.90
51011;DHT22;37038;50.182;8.624;2022-10-16T16:01:21;21.20;99.90
51011;DHT22;37038;50.182;8.624;2022-10-16T16:04:21;20.90;99.90
51011;DHT22;37038;50.182;8.624;2022-10-16T16:07:38;20.90;99.90
51011;DHT22;37038;50.182;8.624;2022-10-16T16:10:43;20.90;99.90
51011;DHT22;37038;50.182;8.624;2022-10-16T16:13:43;20.90;99.90
51011;DHT22;37038;50.182;8.624;2022-10-16T16:16:34;20.90;99.90
51011;DHT22;37038;50.182;8.624;2022-10-16T16:19:57;20.70;99.90
51011;DHT22;37038;50.182;8.624;2022-10-16T16:23:05;20.80;99.90
51011;DHT22;37038;50.182;8.624;2022-10-16T16:26:38;20.90;99.90
51011;DHT22;37038;50.182;8.624;2022-10-16T16:29:43;20.80;99.90
51011;DHT22;37038;50.182;8.624;2022-10-16T16:32:51;20.80;99.90
51011;DHT22;37038;50.182;8.624;2022-10-16T16:36:16;20.80;99.90
51011;DHT22;37038;50.182;8.624;2022-10-16T16:39:27;20.80;99.90
51011;DHT22;37038;50.182;8.624;2022-10-16T20:51:59;16.20;99.90
51011;DHT22;37038;50.182;8.624;2022-10-16T20:55:02;16.10;99.90
51011;DHT22;37038;50.182;8.624;2022-10-16T20:58:36;16.10;99.90
51011;DHT22;37038;50.182;8.624;2022-10-16T21:01:37;16.20;99.90
51011;DHT22;37038;50.182;8.624;2022-10-16T21:04:53;16.10;99.90
51011;DHT22;37038;50.182;8.624;2022-10-16T21:07:50;16.20;99.90
51011;DHT22;37038;50.182;8.624;2022-10-16T21:10:56;16.30;99.90
51011;DHT22;37038;50.182;8.624;2022-10-16T21:13:51;16.20;99.90
51011;DHT22;37038;50.182;8.624;2022-10-16T21:16:55;16.00;99.90
51011;DHT22;37038;50.182;8.624;2022-10-16T21:19:58;16.20;99.90
51011;DHT22;37038;50.182;8.624;2022-10-16T21:22:58;16.30;99.90
51011;DHT22;37038;50.182;8.624;2022-10-16T21:25:56;16.30;99.90
51011;DHT22;37038;50.182;8.624;2022-10-16T21:28:47;16.10;99.90
51011;DHT22;37038;50.182;8.624;2022-10-16T21:31:45;16.00;99.90
51011;DHT22;37038;50.182;8.624;2022-10-16T21:34:37;16.10;99.90
51011;DHT22;37038;50.182;8.624;2022-10-16T21:37:26;16.00;99.90
51011;DHT22;37038;50.182;8.624;2022-10-16T21:40:19;16.10;99.90
51011;DHT22;37038;50.182;8.624;2022-10-16T21:43:08;16.00;99.90
51011;DHT22;37038;50.182;8.624;2022-10-16T21:45:59;16.00;99.90
51011;DHT22;37038;50.182;8.624;2022-10-16T21:48:50;16.00;99.90
51011;DHT22;37038;50.182;8.624;2022-10-16T21:51:42;15.80;99.90
51011;DHT22;37038;50.182;8.624;2022-10-16T21:54:34;15.60;99.90
51011;DHT22;37038;50.182;8.624;2022-10-16T21:57:23;15.10;99.90
51011;DHT22;37038;50.182;8.624;2022-10-16T22:00:12;15.00;99.90
51011;DHT22;37038;50.182;8.624;2022-10-16T22:03:00;14.80;99.90
51011;DHT22;37038;50.182;8.624;2022-10-16T22:05:50;15.10;99.90
51011;DHT22;37038;50.182;8.624;2022-10-16T22:08:39;15.30;99.90
51011;DHT22;37038;50.182;8.624;2022-10-16T22:11:33;15.10;99.90
51011;DHT22;37038;50.182;8.624;2022-10-16T22:14:28;15.10;99.90
51011;DHT22;37038;50.182;8.624;2022-10-16T22:17:16;14.90;99.90
51011;DHT22;37038;50.182;8.624;2022-10-16T22:20:10;14.80;99.90
51011;DHT22;37038;50.182;8.624;2022-10-16T22:22:58;14.80;99.90
51011;DHT22;37038;50.182;8.624;2022-10-16T22:25:50;14.80;99.90
51011;DHT22;37038;50.182;8.624;2022-10-16T22:28:41;14.90;99.90
51011;DHT22;37038;50.182;8.624;2022-10-16T22:31:29;15.10;99.90
51011;DHT22;37038;50.182;8.624;2022-10-16T22:34:18;14.90;99.90
51011;DHT22;37038;50.182;8.624;2022-10-16T22:37:09;15.00;99.90
51011;DHT22;37038;50.182;8.624;2022-10-16T22:40:00;14.90;99.90
51011;DHT22;37038;50.182;8.624;2022-10-16T22:42:49;14.90;99.90
51011;DHT22;37038;50.182;8.624;2022-10-16T22:45:42;14.90;99.90
51011;DHT22;37038;50.182;8.624;2022-10-16T22:48:31;15.10;99.90
51011;DHT22;37038;50.182;8.624;2022-10-16T22:51:23;14.90;99.90
51011;DHT22;37038;50.182;8.624;2022-10-16T22:54:13;14.80;99.90
51011;DHT22;37038;50.182;8.624;2022-10-16T22:57:03;14.60;99.90
51011;DHT22;37038;50.182;8.624;2022-10-16T22:59:52;14.50;99.90
51011;DHT22;37038;50.182;8.624;2022-10-16T23:02:40;14.60;99.90
51011;DHT22;37038;50.182;8.624;2022-10-16T23:05:28;14.50;99.90
51011;DHT22;37038;50.182;8.624;2022-10-16T23:08:17;14.40;99.90
51011;DHT22;37038;50.182;8.624;2022-10-16T23:11:06;14.70;99.90
51011;DHT22;37038;50.182;8.624;2022-10-16T23:13:58;14.60;99.90
51011;DHT22;37038;50.182;8.624;2022-10-16T23:16:53;14.60;99.90
51011;DHT22;37038;50.182;8.624;2022-10-16T23:19:45;14.70;99.90
51011;DHT22;37038;50.182;8.624;2022-10-16T23:22:35;14.50;99.90
51011;DHT22;37038;50.182;8.624;2022-10-16T23:25:24;14.60;99.90
51011;DHT22;37038;50.182;8.624;2022-10-16T23:28:13;14.50;99.90
51011;DHT22;37038;50.182;8.624;2022-10-16T23:31:05;14.30;99.90
51011;DHT22;37038;50.182;8.624;2022-10-16T23:33:57;14.30;99.90
51011;DHT22;37038;50.182;8.624;2022-10-16T23:36:46;14.20;99.90
51011;DHT22;37038;50.182;8.624;2022-10-16T23:39:40;14.20;99.90
51011;DHT22;37038;50.182;8.624;2022-10-16T23:42:28;14.30;99.90
51011;DHT22;37038;50.182;8.624;2022-10-16T23:45:17;14.60;99.90
51011;DHT22;37038;50.182;8.624;2022-10-16T23:48:05;14.50;99.90
51011;DHT22;37038;50.182;8.624;2022-10-16T23:50:53;14.50;99.90
51011;DHT22;37038;50.182;8.624;2022-10-16T23:53:45;14.60;99.90
51011;DHT22;37038;50.182;8.624;2022-10-16T23:56:33;14.50;99.90
51011;DHT22;37038;50.182;8.624;2022-10-16T23:59:22;14.40;99.90
